sensor_id;sensor_type;location;lat;lon;timestamp;P1;durP1;ratioP1;P2;durP2;ratioP2
4533;SDS011;2279;51.448;7.306;2023-08-07T00:00:56;184.57;;;52.37;;
4533;SDS011;2279;51.448;7.306;2023-08-07T00:03:22;183.47;;;52.03;;
4533;SDS011;2279;51.448;7.306;2023-08-07T00:05:48;184.53;;;53.07;;
4533;SDS011;2279;51.448;7.306;2023-08-07T00:08:16;182.52;;;51.28;;
4533;SDS011;2279;51.448;7.306;2023-08-07T00:10:42;183.50;;;52.33;;
4533;SDS011;2279;51.448;7.306;2023-08-07T00:13:08;184.02;;;52.33;;
4533;SDS011;2279;51.448;7.306;2023-08-07T00:15:37;185.30;;;52.77;;
4533;SDS011;2279;51.448;7.306;2023-08-07T00:18:03;181.93;;;50.90;;
4533;SDS011;2279;51.448;7.306;2023-08-07T00:20:29;184.80;;;53.30;;
4533;SDS011;2279;51.448;7.306;2023-08-07T00:22:55;184.60;;;52.13;;
4533;SDS011;2279;51.448;7.306;2023-08-07T00:25:21;185.07;;;53.27;;
4533;SDS011;2279;51.448;7.306;2023-08-07T00:27:47;181.40;;;50.77;;
4533;SDS011;2279;51.448;7.306;2023-08-07T00:30:13;184.90;;;52.72;;
4533;SDS011;2279;51.448;7.306;2023-08-07T00:32:39;183.60;;;52.17;;
4533;SDS011;2279;51.448;7.306;2023-08-07T00:35:05;183.77;;;52.57;;
4533;SDS011;2279;51.448;7.306;2023-08-07T00:37:33;185.20;;;52.83;;
4533;SDS011;2279;51.448;7.306;2023-08-07T00:39:59;185.47;;;52.50;;
4533;SDS011;2279;51.448;7.306;2023-08-07T00:42:25;185.93;;;52.83;;
4533;SDS011;2279;51.448;7.306;2023-08-07T00:44:51;185.68;;;52.50;;
4533;SDS011;2279;51.448;7.306;2023-08-07T00:47:16;175.30;;;50.90;;
4533;SDS011;2279;51.448;7.306;2023-08-07T00:49:43;178.13;;;54.50;;
4533;SDS011;2279;51.448;7.306;2023-08-07T00:52:09;177.35;;;53.50;;
4533;SDS011;2279;51.448;7.306;2023-08-07T00:54:35;177.68;;;53.30;;
4533;SDS011;2279;51.448;7.306;2023-08-07T00:57:09;176.90;;;52.10;;
4533;SDS011;2279;51.448;7.306;2023-08-07T00:59:36;179.13;;;53.10;;
4533;SDS011;2279;51.448;7.306;2023-08-07T01:02:02;181.20;;;54.80;;
4533;SDS011;2279;51.448;7.306;2023-08-07T01:04:28;179.88;;;53.25;;
4533;SDS011;2279;51.448;7.306;2023-08-07T01:06:54;180.53;;;55.03;;
4533;SDS011;2279;51.448;7.306;2023-08-07T01:09:20;179.63;;;54.03;;
4533;SDS011;2279;51.448;7.306;2023-08-07T01:11:48;179.70;;;54.60;;
4533;SDS011;2279;51.448;7.306;2023-08-07T01:16:45;176.05;;;51.65;;
4533;SDS011;2279;51.448;7.306;2023-08-07T01:19:34;179.32;;;52.72;;
4533;SDS011;2279;51.448;7.306;2023-08-07T01:22:12;179.15;;;52.20;;
4533;SDS011;2279;51.448;7.306;2023-08-07T01:24:39;179.07;;;51.97;;
4533;SDS011;2279;51.448;7.306;2023-08-07T01:32:13;179.00;;;51.70;;
4533;SDS011;2279;51.448;7.306;2023-08-07T01:34:40;179.48;;;52.05;;
4533;SDS011;2279;51.448;7.306;2023-08-07T01:37:07;179.23;;;51.72;;
4533;SDS011;2279;51.448;7.306;2023-08-07T01:39:33;178.68;;;51.67;;
4533;SDS011;2279;51.448;7.306;2023-08-07T01:42:00;180.38;;;52.53;;
4533;SDS011;2279;51.448;7.306;2023-08-07T01:44:27;179.82;;;52.17;;
4533;SDS011;2279;51.448;7.306;2023-08-07T01:46:53;178.55;;;51.40;;
4533;SDS011;2279;51.448;7.306;2023-08-07T01:49:19;179.55;;;52.17;;
4533;SDS011;2279;51.448;7.306;2023-08-07T01:51:45;177.87;;;50.20;;
4533;SDS011;2279;51.448;7.306;2023-08-07T01:54:11;180.67;;;52.43;;
4533;SDS011;2279;51.448;7.306;2023-08-07T01:56:37;179.00;;;51.50;;
4533;SDS011;2279;51.448;7.306;2023-08-07T01:59:03;181.13;;;52.40;;
4533;SDS011;2279;51.448;7.306;2023-08-07T02:01:29;192.73;;;61.33;;
4533;SDS011;2279;51.448;7.306;2023-08-07T02:03:55;177.63;;;50.67;;
4533;SDS011;2279;51.448;7.306;2023-08-07T02:06:21;179.17;;;51.37;;
4533;SDS011;2279;51.448;7.306;2023-08-07T02:08:47;179.20;;;52.15;;
4533;SDS011;2279;51.448;7.306;2023-08-07T02:11:13;179.77;;;52.37;;
4533;SDS011;2279;51.448;7.306;2023-08-07T02:13:39;179.73;;;51.70;;
4533;SDS011;2279;51.448;7.306;2023-08-07T02:16:05;179.60;;;52.17;;
4533;SDS011;2279;51.448;7.306;2023-08-07T02:18:31;180.27;;;52.40;;
4533;SDS011;2279;51.448;7.306;2023-08-07T02:20:57;179.37;;;51.90;;
4533;SDS011;2279;51.448;7.306;2023-08-07T02:23:22;180.13;;;51.97;;
4533;SDS011;2279;51.448;7.306;2023-08-07T02:25:48;180.00;;;51.87;;
4533;SDS011;2279;51.448;7.306;2023-08-07T02:28:14;177.87;;;51.10;;
4533;SDS011;2279;51.448;7.306;2023-08-07T02:30:40;179.13;;;51.37;;
4533;SDS011;2279;51.448;7.306;2023-08-07T02:33:06;178.60;;;51.50;;
4533;SDS011;2279;51.448;7.306;2023-08-07T02:35:32;179.40;;;51.53;;
4533;SDS011;2279;51.448;7.306;2023-08-07T02:37:58;180.77;;;52.17;;
4533;SDS011;2279;51.448;7.306;2023-08-07T02:40:24;179.57;;;51.77;;
4533;SDS011;2279;51.448;7.306;2023-08-07T02:42:50;179.60;;;52.00;;
4533;SDS011;2279;51.448;7.306;2023-08-07T02:45:16;180.30;;;52.30;;
4533;SDS011;2279;51.448;7.306;2023-08-07T02:47:42;179.37;;;51.87;;
4533;SDS011;2279;51.448;7.306;2023-08-07T02:50:08;178.27;;;50.80;;
4533;SDS011;2279;51.448;7.306;2023-08-07T02:52:34;180.13;;;52.42;;
4533;SDS011;2279;51.448;7.306;2023-08-07T02:55:00;178.53;;;51.00;;
4533;SDS011;2279;51.448;7.306;2023-08-07T02:57:26;178.80;;;52.50;;
4533;SDS011;2279;51.448;7.306;2023-08-07T02:59:52;184.15;;;55.97;;
4533;SDS011;2279;51.448;7.306;2023-08-07T03:02:18;178.97;;;51.73;;
4533;SDS011;2279;51.448;7.306;2023-08-07T03:04:44;178.90;;;52.07;;
4533;SDS011;2279;51.448;7.306;2023-08-07T03:07:10;180.00;;;52.50;;
4533;SDS011;2279;51.448;7.306;2023-08-07T03:09:36;179.47;;;51.63;;
4533;SDS011;2279;51.448;7.306;2023-08-07T03:12:02;177.67;;;50.70;;
4533;SDS011;2279;51.448;7.306;2023-08-07T03:14:29;179.43;;;52.15;;
4533;SDS011;2279;51.448;7.306;2023-08-07T03:16:55;181.52;;;53.70;;
4533;SDS011;2279;51.448;7.306;2023-08-07T03:19:21;179.23;;;51.92;;
4533;SDS011;2279;51.448;7.306;2023-08-07T03:21:47;180.45;;;53.05;;
4533;SDS011;2279;51.448;7.306;2023-08-07T03:24:13;180.10;;;52.37;;
4533;SDS011;2279;51.448;7.306;2023-08-07T03:26:39;179.70;;;51.87;;
4533;SDS011;2279;51.448;7.306;2023-08-07T03:29:06;179.57;;;52.03;;
4533;SDS011;2279;51.448;7.306;2023-08-07T03:31:31;180.03;;;52.47;;
4533;SDS011;2279;51.448;7.306;2023-08-07T03:33:57;180.50;;;52.60;;
4533;SDS011;2279;51.448;7.306;2023-08-07T03:36:23;182.95;;;54.60;;
4533;SDS011;2279;51.448;7.306;2023-08-07T03:38:49;180.20;;;52.17;;
4533;SDS011;2279;51.448;7.306;2023-08-07T03:41:15;179.50;;;51.60;;
4533;SDS011;2279;51.448;7.306;2023-08-07T03:43:41;179.60;;;52.63;;
4533;SDS011;2279;51.448;7.306;2023-08-07T03:46:07;179.33;;;51.90;;
4533;SDS011;2279;51.448;7.306;2023-08-07T03:48:33;178.77;;;51.57;;
4533;SDS011;2279;51.448;7.306;2023-08-07T03:51:03;180.47;;;52.80;;
4533;SDS011;2279;51.448;7.306;2023-08-07T03:53:29;180.38;;;51.55;;
4533;SDS011;2279;51.448;7.306;2023-08-07T03:55:55;180.30;;;52.07;;
4533;SDS011;2279;51.448;7.306;2023-08-07T03:58:21;179.77;;;51.80;;
4533;SDS011;2279;51.448;7.306;2023-08-07T04:00:47;180.03;;;52.30;;
4533;SDS011;2279;51.448;7.306;2023-08-07T04:03:13;179.93;;;52.25;;
4533;SDS011;2279;51.448;7.306;2023-08-07T04:05:39;178.77;;;51.27;;
4533;SDS011;2279;51.448;7.306;2023-08-07T04:08:05;177.37;;;50.50;;
4533;SDS011;2279;51.448;7.306;2023-08-07T04:10:30;180.03;;;51.80;;
4533;SDS011;2279;51.448;7.306;2023-08-07T04:12:56;178.80;;;51.30;;
4533;SDS011;2279;51.448;7.306;2023-08-07T04:15:22;179.60;;;52.00;;
4533;SDS011;2279;51.448;7.306;2023-08-07T04:17:48;178.67;;;51.13;;
4533;SDS011;2279;51.448;7.306;2023-08-07T04:20:14;180.40;;;52.20;;
4533;SDS011;2279;51.448;7.306;2023-08-07T04:22:40;177.17;;;50.20;;
4533;SDS011;2279;51.448;7.306;2023-08-07T04:25:06;179.57;;;51.50;;
4533;SDS011;2279;51.448;7.306;2023-08-07T04:27:32;178.82;;;51.30;;
4533;SDS011;2279;51.448;7.306;2023-08-07T04:29:58;181.13;;;52.40;;
4533;SDS011;2279;51.448;7.306;2023-08-07T04:32:24;178.60;;;51.43;;
4533;SDS011;2279;51.448;7.306;2023-08-07T04:34:50;178.93;;;51.42;;
4533;SDS011;2279;51.448;7.306;2023-08-07T04:37:16;178.90;;;50.80;;
4533;SDS011;2279;51.448;7.306;2023-08-07T04:39:42;180.80;;;53.10;;
4533;SDS011;2279;51.448;7.306;2023-08-07T04:42:08;179.60;;;51.40;;
4533;SDS011;2279;51.448;7.306;2023-08-07T04:44:34;177.70;;;51.30;;
4533;SDS011;2279;51.448;7.306;2023-08-07T04:47:01;180.87;;;51.87;;
4533;SDS011;2279;51.448;7.306;2023-08-07T04:49:27;179.35;;;51.72;;
4533;SDS011;2279;51.448;7.306;2023-08-07T04:51:53;178.37;;;50.93;;
4533;SDS011;2279;51.448;7.306;2023-08-07T04:54:18;178.57;;;50.93;;
4533;SDS011;2279;51.448;7.306;2023-08-07T04:56:44;179.37;;;52.17;;
4533;SDS011;2279;51.448;7.306;2023-08-07T04:59:11;178.00;;;51.20;;
4533;SDS011;2279;51.448;7.306;2023-08-07T05:01:37;178.32;;;50.95;;
4533;SDS011;2279;51.448;7.306;2023-08-07T05:04:03;179.55;;;53.25;;
4533;SDS011;2279;51.448;7.306;2023-08-07T05:06:30;180.10;;;52.30;;
4533;SDS011;2279;51.448;7.306;2023-08-07T05:08:56;180.15;;;52.67;;
4533;SDS011;2279;51.448;7.306;2023-08-07T05:11:22;181.52;;;53.83;;
4533;SDS011;2279;51.448;7.306;2023-08-07T05:13:48;179.80;;;52.97;;
4533;SDS011;2279;51.448;7.306;2023-08-07T05:16:14;179.87;;;52.07;;
4533;SDS011;2279;51.448;7.306;2023-08-07T05:18:42;178.75;;;52.55;;
4533;SDS011;2279;51.448;7.306;2023-08-07T05:21:08;178.40;;;51.67;;
4533;SDS011;2279;51.448;7.306;2023-08-07T05:23:34;180.97;;;53.07;;
4533;SDS011;2279;51.448;7.306;2023-08-07T05:26:00;180.90;;;53.60;;
4533;SDS011;2279;51.448;7.306;2023-08-07T05:28:27;179.98;;;53.05;;
4533;SDS011;2279;51.448;7.306;2023-08-07T05:30:53;182.88;;;54.30;;
4533;SDS011;2279;51.448;7.306;2023-08-07T05:33:19;184.00;;;56.27;;
4533;SDS011;2279;51.448;7.306;2023-08-07T05:35:45;180.73;;;53.63;;
4533;SDS011;2279;51.448;7.306;2023-08-07T05:38:11;177.90;;;51.20;;
4533;SDS011;2279;51.448;7.306;2023-08-07T05:40:37;179.27;;;52.60;;
4533;SDS011;2279;51.448;7.306;2023-08-07T05:43:03;180.55;;;53.15;;
4533;SDS011;2279;51.448;7.306;2023-08-07T05:45:29;179.07;;;51.87;;
4533;SDS011;2279;51.448;7.306;2023-08-07T05:47:55;178.95;;;52.53;;
4533;SDS011;2279;51.448;7.306;2023-08-07T05:50:21;179.80;;;51.97;;
4533;SDS011;2279;51.448;7.306;2023-08-07T05:52:47;179.48;;;52.03;;
4533;SDS011;2279;51.448;7.306;2023-08-07T05:55:13;180.23;;;53.40;;
4533;SDS011;2279;51.448;7.306;2023-08-07T05:57:39;178.37;;;51.77;;
4533;SDS011;2279;51.448;7.306;2023-08-07T06:00:05;180.93;;;52.97;;
4533;SDS011;2279;51.448;7.306;2023-08-07T06:02:32;177.65;;;51.33;;
4533;SDS011;2279;51.448;7.306;2023-08-07T06:04:58;179.80;;;52.08;;
4533;SDS011;2279;51.448;7.306;2023-08-07T06:07:24;180.50;;;53.67;;
4533;SDS011;2279;51.448;7.306;2023-08-07T06:09:50;183.18;;;55.40;;
4533;SDS011;2279;51.448;7.306;2023-08-07T06:12:16;178.80;;;51.83;;
4533;SDS011;2279;51.448;7.306;2023-08-07T06:14:42;179.70;;;52.40;;
4533;SDS011;2279;51.448;7.306;2023-08-07T06:17:08;178.43;;;52.07;;
4533;SDS011;2279;51.448;7.306;2023-08-07T06:19:34;180.30;;;51.90;;
4533;SDS011;2279;51.448;7.306;2023-08-07T06:22:00;179.47;;;52.83;;
4533;SDS011;2279;51.448;7.306;2023-08-07T06:24:26;177.47;;;51.07;;
4533;SDS011;2279;51.448;7.306;2023-08-07T06:26:52;178.23;;;51.88;;
4533;SDS011;2279;51.448;7.306;2023-08-07T06:29:18;180.13;;;53.17;;
4533;SDS011;2279;51.448;7.306;2023-08-07T06:31:44;178.20;;;51.30;;
4533;SDS011;2279;51.448;7.306;2023-08-07T06:34:10;178.80;;;52.22;;
4533;SDS011;2279;51.448;7.306;2023-08-07T06:36:36;179.00;;;51.85;;
4533;SDS011;2279;51.448;7.306;2023-08-07T06:39:02;178.10;;;52.07;;
4533;SDS011;2279;51.448;7.306;2023-08-07T06:41:29;179.10;;;51.45;;
4533;SDS011;2279;51.448;7.306;2023-08-07T06:43:55;179.50;;;53.35;;
4533;SDS011;2279;51.448;7.306;2023-08-07T06:46:21;178.37;;;53.40;;
4533;SDS011;2279;51.448;7.306;2023-08-07T06:48:49;176.73;;;51.15;;
4533;SDS011;2279;51.448;7.306;2023-08-07T06:51:15;178.93;;;53.57;;
4533;SDS011;2279;51.448;7.306;2023-08-07T06:53:41;179.38;;;52.97;;
4533;SDS011;2279;51.448;7.306;2023-08-07T06:56:07;177.32;;;51.97;;
4533;SDS011;2279;51.448;7.306;2023-08-07T06:58:33;177.27;;;51.87;;
4533;SDS011;2279;51.448;7.306;2023-08-07T07:00:59;177.73;;;51.07;;
4533;SDS011;2279;51.448;7.306;2023-08-07T07:03:25;179.00;;;53.05;;
4533;SDS011;2279;51.448;7.306;2023-08-07T07:05:51;175.05;;;51.75;;
4533;SDS011;2279;51.448;7.306;2023-08-07T07:08:17;176.37;;;51.60;;
4533;SDS011;2279;51.448;7.306;2023-08-07T07:10:44;177.93;;;52.05;;
4533;SDS011;2279;51.448;7.306;2023-08-07T07:13:09;179.60;;;53.07;;
4533;SDS011;2279;51.448;7.306;2023-08-07T07:15:35;180.60;;;53.40;;
4533;SDS011;2279;51.448;7.306;2023-08-07T07:18:01;176.90;;;51.73;;
4533;SDS011;2279;51.448;7.306;2023-08-07T07:20:27;179.88;;;52.92;;
4533;SDS011;2279;51.448;7.306;2023-08-07T07:22:53;178.53;;;51.87;;
4533;SDS011;2279;51.448;7.306;2023-08-07T07:25:19;177.77;;;52.43;;
4533;SDS011;2279;51.448;7.306;2023-08-07T07:27:45;178.57;;;52.20;;
4533;SDS011;2279;51.448;7.306;2023-08-07T07:30:11;179.17;;;53.23;;
4533;SDS011;2279;51.448;7.306;2023-08-07T07:32:37;182.18;;;55.40;;
4533;SDS011;2279;51.448;7.306;2023-08-07T07:35:04;179.02;;;53.00;;
4533;SDS011;2279;51.448;7.306;2023-08-07T07:37:30;179.20;;;52.25;;
4533;SDS011;2279;51.448;7.306;2023-08-07T07:39:56;177.52;;;50.92;;
4533;SDS011;2279;51.448;7.306;2023-08-07T07:42:22;178.55;;;51.75;;
4533;SDS011;2279;51.448;7.306;2023-08-07T07:44:48;181.07;;;53.27;;
4533;SDS011;2279;51.448;7.306;2023-08-07T07:47:14;178.05;;;51.47;;
4533;SDS011;2279;51.448;7.306;2023-08-07T07:49:44;180.37;;;53.27;;
4533;SDS011;2279;51.448;7.306;2023-08-07T07:52:12;178.65;;;51.53;;
4533;SDS011;2279;51.448;7.306;2023-08-07T07:54:38;177.23;;;51.47;;
4533;SDS011;2279;51.448;7.306;2023-08-07T07:57:04;179.97;;;52.23;;
4533;SDS011;2279;51.448;7.306;2023-08-07T07:59:30;184.50;;;55.10;;
4533;SDS011;2279;51.448;7.306;2023-08-07T08:01:56;176.87;;;51.03;;
4533;SDS011;2279;51.448;7.306;2023-08-07T08:04:22;182.13;;;54.63;;
4533;SDS011;2279;51.448;7.306;2023-08-07T08:06:48;178.43;;;51.47;;
4533;SDS011;2279;51.448;7.306;2023-08-07T08:09:14;177.87;;;51.17;;
4533;SDS011;2279;51.448;7.306;2023-08-07T08:11:40;178.50;;;51.80;;
4533;SDS011;2279;51.448;7.306;2023-08-07T08:14:06;178.97;;;52.07;;
4533;SDS011;2279;51.448;7.306;2023-08-07T08:16:32;179.27;;;51.90;;
4533;SDS011;2279;51.448;7.306;2023-08-07T08:18:58;178.50;;;51.57;;
4533;SDS011;2279;51.448;7.306;2023-08-07T08:21:24;178.57;;;52.40;;
4533;SDS011;2279;51.448;7.306;2023-08-07T08:23:50;179.67;;;52.17;;
4533;SDS011;2279;51.448;7.306;2023-08-07T08:26:16;180.10;;;53.07;;
4533;SDS011;2279;51.448;7.306;2023-08-07T08:28:42;180.13;;;52.50;;
4533;SDS011;2279;51.448;7.306;2023-08-07T08:31:08;177.17;;;50.50;;
4533;SDS011;2279;51.448;7.306;2023-08-07T08:33:34;179.57;;;52.07;;
4533;SDS011;2279;51.448;7.306;2023-08-07T08:36:00;179.63;;;52.67;;
4533;SDS011;2279;51.448;7.306;2023-08-07T08:38:26;178.80;;;52.20;;
4533;SDS011;2279;51.448;7.306;2023-08-07T08:40:57;181.10;;;53.10;;
4533;SDS011;2279;51.448;7.306;2023-08-07T08:43:23;183.15;;;54.63;;
4533;SDS011;2279;51.448;7.306;2023-08-07T08:45:50;181.15;;;53.15;;
4533;SDS011;2279;51.448;7.306;2023-08-07T08:48:20;180.70;;;52.92;;
4533;SDS011;2279;51.448;7.306;2023-08-07T08:50:49;184.18;;;54.72;;
4533;SDS011;2279;51.448;7.306;2023-08-07T08:53:15;178.93;;;52.08;;
4533;SDS011;2279;51.448;7.306;2023-08-07T08:55:42;179.93;;;52.25;;
4533;SDS011;2279;51.448;7.306;2023-08-07T08:58:11;178.60;;;51.55;;
4533;SDS011;2279;51.448;7.306;2023-08-07T09:00:38;179.90;;;52.17;;
4533;SDS011;2279;51.448;7.306;2023-08-07T09:03:05;179.95;;;52.25;;
4533;SDS011;2279;51.448;7.306;2023-08-07T09:05:31;180.30;;;52.70;;
4533;SDS011;2279;51.448;7.306;2023-08-07T09:07:57;177.57;;;51.05;;
4533;SDS011;2279;51.448;7.306;2023-08-07T09:10:24;179.95;;;52.47;;
4533;SDS011;2279;51.448;7.306;2023-08-07T09:12:57;181.32;;;52.85;;
4533;SDS011;2279;51.448;7.306;2023-08-07T09:15:25;180.05;;;52.85;;
4533;SDS011;2279;51.448;7.306;2023-08-07T09:17:52;179.55;;;52.17;;
4533;SDS011;2279;51.448;7.306;2023-08-07T09:20:20;178.68;;;51.70;;
4533;SDS011;2279;51.448;7.306;2023-08-07T09:22:47;180.65;;;52.95;;
4533;SDS011;2279;51.448;7.306;2023-08-07T09:25:13;179.57;;;52.00;;
4533;SDS011;2279;51.448;7.306;2023-08-07T09:27:40;181.10;;;53.22;;
4533;SDS011;2279;51.448;7.306;2023-08-07T09:30:06;181.88;;;53.28;;
4533;SDS011;2279;51.448;7.306;2023-08-07T09:32:36;180.98;;;52.80;;
4533;SDS011;2279;51.448;7.306;2023-08-07T09:35:03;181.65;;;52.78;;
4533;SDS011;2279;51.448;7.306;2023-08-07T09:37:30;181.85;;;53.20;;
4533;SDS011;2279;51.448;7.306;2023-08-07T09:39:56;184.38;;;54.67;;
4533;SDS011;2279;51.448;7.306;2023-08-07T09:42:22;184.55;;;54.70;;
4533;SDS011;2279;51.448;7.306;2023-08-07T09:44:48;182.63;;;53.70;;
4533;SDS011;2279;51.448;7.306;2023-08-07T09:47:16;183.68;;;53.90;;
4533;SDS011;2279;51.448;7.306;2023-08-07T09:49:42;187.05;;;57.25;;
4533;SDS011;2279;51.448;7.306;2023-08-07T09:52:09;183.20;;;53.08;;
4533;SDS011;2279;51.448;7.306;2023-08-07T09:54:35;185.23;;;55.13;;
4533;SDS011;2279;51.448;7.306;2023-08-07T09:57:01;183.88;;;53.92;;
4533;SDS011;2279;51.448;7.306;2023-08-07T09:59:28;186.10;;;55.70;;
4533;SDS011;2279;51.448;7.306;2023-08-07T10:01:54;185.80;;;55.03;;
4533;SDS011;2279;51.448;7.306;2023-08-07T10:04:23;185.68;;;55.63;;
4533;SDS011;2279;51.448;7.306;2023-08-07T10:06:50;185.00;;;53.83;;
4533;SDS011;2279;51.448;7.306;2023-08-07T10:09:16;185.63;;;54.40;;
4533;SDS011;2279;51.448;7.306;2023-08-07T10:11:42;186.80;;;56.08;;
4533;SDS011;2279;51.448;7.306;2023-08-07T10:14:08;184.67;;;53.87;;
4533;SDS011;2279;51.448;7.306;2023-08-07T10:16:35;184.38;;;53.75;;
4533;SDS011;2279;51.448;7.306;2023-08-07T10:19:05;184.52;;;53.83;;
4533;SDS011;2279;51.448;7.306;2023-08-07T10:21:33;182.75;;;52.45;;
4533;SDS011;2279;51.448;7.306;2023-08-07T10:24:00;184.32;;;53.58;;
4533;SDS011;2279;51.448;7.306;2023-08-07T10:26:28;183.00;;;53.90;;
4533;SDS011;2279;51.448;7.306;2023-08-07T10:28:55;182.52;;;52.85;;
4533;SDS011;2279;51.448;7.306;2023-08-07T10:31:22;185.13;;;54.60;;
4533;SDS011;2279;51.448;7.306;2023-08-07T10:33:48;183.65;;;54.00;;
4533;SDS011;2279;51.448;7.306;2023-08-07T10:36:15;184.30;;;54.22;;
4533;SDS011;2279;51.448;7.306;2023-08-07T10:38:42;184.00;;;54.30;;
4533;SDS011;2279;51.448;7.306;2023-08-07T10:41:08;187.50;;;57.40;;
4533;SDS011;2279;51.448;7.306;2023-08-07T10:43:38;188.90;;;56.97;;
4533;SDS011;2279;51.448;7.306;2023-08-07T10:46:11;184.60;;;53.87;;
4533;SDS011;2279;51.448;7.306;2023-08-07T10:48:38;186.67;;;56.10;;
4533;SDS011;2279;51.448;7.306;2023-08-07T10:51:04;185.20;;;55.17;;
4533;SDS011;2279;51.448;7.306;2023-08-07T10:53:31;186.83;;;55.67;;
4533;SDS011;2279;51.448;7.306;2023-08-07T10:55:57;187.30;;;57.20;;
4533;SDS011;2279;51.448;7.306;2023-08-07T10:58:29;185.80;;;56.50;;
4533;SDS011;2279;51.448;7.306;2023-08-07T11:03:40;185.83;;;55.67;;
4533;SDS011;2279;51.448;7.306;2023-08-07T11:06:08;183.57;;;55.20;;
4533;SDS011;2279;51.448;7.306;2023-08-07T11:08:34;186.87;;;58.70;;
4533;SDS011;2279;51.448;7.306;2023-08-07T11:11:04;184.20;;;55.00;;
4533;SDS011;2279;51.448;7.306;2023-08-07T11:13:30;185.60;;;55.97;;
4533;SDS011;2279;51.448;7.306;2023-08-07T11:15:56;183.23;;;54.67;;
4533;SDS011;2279;51.448;7.306;2023-08-07T11:18:22;183.25;;;54.03;;
4533;SDS011;2279;51.448;7.306;2023-08-07T11:20:48;183.93;;;55.83;;
4533;SDS011;2279;51.448;7.306;2023-08-07T11:23:14;183.83;;;55.17;;
4533;SDS011;2279;51.448;7.306;2023-08-07T11:25:41;183.77;;;54.70;;
4533;SDS011;2279;51.448;7.306;2023-08-07T11:28:07;183.67;;;54.90;;
4533;SDS011;2279;51.448;7.306;2023-08-07T11:30:33;186.60;;;56.70;;
4533;SDS011;2279;51.448;7.306;2023-08-07T11:33:00;185.70;;;55.40;;
4533;SDS011;2279;51.448;7.306;2023-08-07T11:35:26;186.37;;;58.57;;
4533;SDS011;2279;51.448;7.306;2023-08-07T11:37:52;189.90;;;60.47;;
4533;SDS011;2279;51.448;7.306;2023-08-07T11:40:19;185.57;;;56.67;;
4533;SDS011;2279;51.448;7.306;2023-08-07T11:42:45;186.97;;;58.27;;
4533;SDS011;2279;51.448;7.306;2023-08-07T11:45:11;188.50;;;59.17;;
4533;SDS011;2279;51.448;7.306;2023-08-07T11:47:37;187.27;;;57.70;;
4533;SDS011;2279;51.448;7.306;2023-08-07T11:50:04;187.60;;;58.30;;
4533;SDS011;2279;51.448;7.306;2023-08-07T11:52:31;186.60;;;57.10;;
4533;SDS011;2279;51.448;7.306;2023-08-07T11:54:56;184.97;;;56.83;;
4533;SDS011;2279;51.448;7.306;2023-08-07T11:57:22;186.47;;;57.17;;
4533;SDS011;2279;51.448;7.306;2023-08-07T11:59:51;190.17;;;60.80;;
4533;SDS011;2279;51.448;7.306;2023-08-07T12:02:22;186.97;;;57.73;;
4533;SDS011;2279;51.448;7.306;2023-08-07T12:04:48;185.07;;;56.47;;
4533;SDS011;2279;51.448;7.306;2023-08-07T12:07:16;185.87;;;56.77;;
4533;SDS011;2279;51.448;7.306;2023-08-07T12:09:44;192.10;;;62.37;;
4533;SDS011;2279;51.448;7.306;2023-08-07T12:12:10;187.20;;;58.13;;
4533;SDS011;2279;51.448;7.306;2023-08-07T12:14:38;187.87;;;57.27;;
4533;SDS011;2279;51.448;7.306;2023-08-07T12:17:05;188.23;;;58.70;;
4533;SDS011;2279;51.448;7.306;2023-08-07T12:19:37;190.47;;;62.87;;
4533;SDS011;2279;51.448;7.306;2023-08-07T12:22:05;187.83;;;57.93;;
4533;SDS011;2279;51.448;7.306;2023-08-07T12:24:32;189.07;;;59.73;;
4533;SDS011;2279;51.448;7.306;2023-08-07T12:26:58;193.27;;;65.83;;
4533;SDS011;2279;51.448;7.306;2023-08-07T12:29:24;189.13;;;59.00;;
4533;SDS011;2279;51.448;7.306;2023-08-07T12:31:54;189.60;;;60.50;;
4533;SDS011;2279;51.448;7.306;2023-08-07T12:34:20;188.13;;;60.37;;
4533;SDS011;2279;51.448;7.306;2023-08-07T12:36:46;187.47;;;59.57;;
4533;SDS011;2279;51.448;7.306;2023-08-07T12:39:12;186.10;;;58.20;;
4533;SDS011;2279;51.448;7.306;2023-08-07T12:41:38;186.70;;;58.50;;
4533;SDS011;2279;51.448;7.306;2023-08-07T12:44:04;186.90;;;58.33;;
4533;SDS011;2279;51.448;7.306;2023-08-07T12:46:30;187.73;;;59.67;;
4533;SDS011;2279;51.448;7.306;2023-08-07T12:48:56;188.70;;;60.63;;
4533;SDS011;2279;51.448;7.306;2023-08-07T12:51:22;194.63;;;66.50;;
4533;SDS011;2279;51.448;7.306;2023-08-07T12:53:48;190.93;;;61.93;;
4533;SDS011;2279;51.448;7.306;2023-08-07T12:56:16;185.23;;;58.50;;
4533;SDS011;2279;51.448;7.306;2023-08-07T12:58:42;184.70;;;55.87;;
4533;SDS011;2279;51.448;7.306;2023-08-07T13:01:08;187.37;;;58.57;;
4533;SDS011;2279;51.448;7.306;2023-08-07T13:03:35;190.17;;;63.07;;
4533;SDS011;2279;51.448;7.306;2023-08-07T13:06:01;185.83;;;58.80;;
4533;SDS011;2279;51.448;7.306;2023-08-07T13:08:30;183.77;;;55.53;;
4533;SDS011;2279;51.448;7.306;2023-08-07T13:10:58;185.47;;;57.47;;
4533;SDS011;2279;51.448;7.306;2023-08-07T13:13:24;188.70;;;59.33;;
4533;SDS011;2279;51.448;7.306;2023-08-07T13:15:50;188.67;;;59.70;;
4533;SDS011;2279;51.448;7.306;2023-08-07T13:18:16;187.13;;;60.20;;
4533;SDS011;2279;51.448;7.306;2023-08-07T13:20:42;190.17;;;62.07;;
4533;SDS011;2279;51.448;7.306;2023-08-07T13:23:08;188.97;;;60.83;;
4533;SDS011;2279;51.448;7.306;2023-08-07T13:25:34;189.10;;;61.93;;
4533;SDS011;2279;51.448;7.306;2023-08-07T13:28:00;187.57;;;59.73;;
4533;SDS011;2279;51.448;7.306;2023-08-07T13:30:29;191.30;;;62.23;;
4533;SDS011;2279;51.448;7.306;2023-08-07T13:32:55;188.57;;;61.87;;
4533;SDS011;2279;51.448;7.306;2023-08-07T13:35:21;190.20;;;63.03;;
4533;SDS011;2279;51.448;7.306;2023-08-07T13:37:47;189.73;;;62.40;;
4533;SDS011;2279;51.448;7.306;2023-08-07T13:40:12;189.03;;;61.30;;
4533;SDS011;2279;51.448;7.306;2023-08-07T13:42:39;190.53;;;63.17;;
4533;SDS011;2279;51.448;7.306;2023-08-07T13:45:05;188.07;;;61.17;;
4533;SDS011;2279;51.448;7.306;2023-08-07T13:47:32;189.90;;;63.00;;
4533;SDS011;2279;51.448;7.306;2023-08-07T13:49:58;192.77;;;65.40;;
4533;SDS011;2279;51.448;7.306;2023-08-07T13:52:24;189.93;;;62.47;;
4533;SDS011;2279;51.448;7.306;2023-08-07T13:54:50;188.57;;;62.50;;
4533;SDS011;2279;51.448;7.306;2023-08-07T13:57:16;190.33;;;62.13;;
4533;SDS011;2279;51.448;7.306;2023-08-07T13:59:42;190.73;;;62.53;;
4533;SDS011;2279;51.448;7.306;2023-08-07T14:02:08;193.47;;;67.43;;
4533;SDS011;2279;51.448;7.306;2023-08-07T14:04:34;189.77;;;62.27;;
4533;SDS011;2279;51.448;7.306;2023-08-07T14:07:01;188.47;;;61.37;;
4533;SDS011;2279;51.448;7.306;2023-08-07T14:09:28;186.77;;;58.87;;
4533;SDS011;2279;51.448;7.306;2023-08-07T14:11:54;187.90;;;59.57;;
4533;SDS011;2279;51.448;7.306;2023-08-07T14:14:21;189.17;;;60.70;;
4533;SDS011;2279;51.448;7.306;2023-08-07T14:16:47;189.63;;;60.93;;
4533;SDS011;2279;51.448;7.306;2023-08-07T14:19:13;188.27;;;59.90;;
4533;SDS011;2279;51.448;7.306;2023-08-07T14:21:39;190.37;;;60.53;;
4533;SDS011;2279;51.448;7.306;2023-08-07T14:24:05;186.17;;;58.27;;
4533;SDS011;2279;51.448;7.306;2023-08-07T14:26:31;186.20;;;57.03;;
4533;SDS011;2279;51.448;7.306;2023-08-07T14:28:58;185.77;;;57.57;;
4533;SDS011;2279;51.448;7.306;2023-08-07T14:31:24;183.53;;;55.30;;
4533;SDS011;2279;51.448;7.306;2023-08-07T14:33:50;185.30;;;56.60;;
4533;SDS011;2279;51.448;7.306;2023-08-07T14:36:15;189.13;;;61.70;;
4533;SDS011;2279;51.448;7.306;2023-08-07T14:38:41;186.13;;;57.57;;